Terminal Aerodrome Forecast
Issued by NWS

Home | Current Version | Previous Version | Text Only | Print | Product List | Glossary On
Versions: 1 2 3 4 5 6 7 8 9 10 11 12 13 14 15 16 17 18 19
642
FTUS41 KCAR 181739
TAFBHB
TAF
KBHB 181739Z 1818/1918 VRB03KT P6SM SCT080
     FM182200 16006KT P6SM BKN060
     FM190200 16010G18KT 4SM -RA BR OVC020
     FM190400 16012G22KT 3SM -RA BR OVC010
     FM190800 18018G28KT 3SM -RA BR OVC004
      AMD NOT SKED=

USA.gov is the U.S. government's official web portal to all federal, state and local government web resources and services.